createdAt,value
2023-02-14T00:00:58.403Z,101190.19
2023-02-14T00:03:25.115Z,101192.88
2023-02-14T00:05:51.905Z,101195.69
2023-02-14T00:08:18.379Z,101198.44
2023-02-14T00:10:45.210Z,101196.75
2023-02-14T00:13:11.594Z,101203.84
2023-02-14T00:15:38.207Z,101196.75
2023-02-14T00:18:06.169Z,101202.75
2023-02-14T00:20:32.575Z,101202.88
2023-02-14T00:23:01.215Z,101199.38
2023-02-14T00:25:27.614Z,101201.31
2023-02-14T00:27:55.938Z,101198.03
2023-02-14T00:30:22.657Z,101198.94
2023-02-14T00:32:49.876Z,101202.66
2023-02-14T00:35:16.340Z,101192.06
2023-02-14T00:37:46.827Z,101198.16
2023-02-14T00:40:13.726Z,101187.53
2023-02-14T00:42:40.391Z,101190.13
2023-02-14T00:45:07.080Z,101191.00
2023-02-14T00:47:34.116Z,101189.34
2023-02-14T00:50:02.746Z,101193.00
2023-02-14T00:52:30.509Z,101184.38
2023-02-14T00:54:56.839Z,101183.63
2023-02-14T00:57:26.688Z,101181.84
2023-02-14T00:59:53.113Z,101180.03
2023-02-14T01:02:29.071Z,101185.28
2023-02-14T01:04:55.512Z,101178.19
2023-02-14T01:07:22.656Z,101185.28
2023-02-14T01:09:49.104Z,101189.72
2023-02-14T01:12:16.035Z,101188.03
2023-02-14T01:14:42.412Z,101190.88
2023-02-14T01:17:34.068Z,101185.63
2023-02-14T01:20:00.607Z,101184.88
2023-02-14T01:23:24.046Z,101185.06
2023-02-14T01:26:47.359Z,101185.03
2023-02-14T01:29:13.739Z,101185.72
2023-02-14T01:31:40.671Z,101188.38
2023-02-14T01:34:07.301Z,101187.34
2023-02-14T01:36:37.574Z,101189.00
2023-02-14T01:39:12.329Z,101181.84
2023-02-14T01:41:41.279Z,101189.47
2023-02-14T01:44:36.629Z,101184.94
2023-02-14T01:47:07.798Z,101172.03
2023-02-14T01:49:38.785Z,101170.00
2023-02-14T01:52:12.967Z,101167.94
2023-02-14T01:54:44.592Z,101165.84
2023-02-14T01:57:15.406Z,101160.53
2023-02-14T01:59:51.107Z,101162.22
2023-02-14T02:02:23.713Z,101158.81
2023-02-14T02:04:55.797Z,101151.78
2023-02-14T02:07:26.826Z,101149.13
2023-02-14T02:10:00.749Z,101150.59
2023-02-14T02:12:29.784Z,101155.00
2023-02-14T02:15:00.321Z,101148.06
2023-02-14T02:17:45.305Z,101143.19
2023-02-14T02:20:31.933Z,101145.75
2023-02-14T02:23:21.779Z,101140.38
2023-02-14T02:26:03.618Z,101146.75
2023-02-14T02:29:07.913Z,101141.72
2023-02-14T02:31:54.864Z,101141.25
2023-02-14T02:34:59.370Z,101153.66
2023-02-14T02:37:44.786Z,101148.56
2023-02-14T02:40:23.611Z,101145.03
2023-02-14T02:43:07.391Z,101151.97
2023-02-14T02:46:08.485Z,101143.19
2023-02-14T02:48:45.287Z,101138.28
2023-02-14T02:51:40.881Z,101135.81
2023-02-14T02:54:14.485Z,101138.41
2023-02-14T02:56:51.564Z,101140.78
2023-02-14T02:59:30.322Z,101136.63
2023-02-14T03:02:12.793Z,101137.81
2023-02-14T03:04:56.247Z,101134.50
2023-02-14T03:07:39.699Z,101137.47
2023-02-14T03:10:19.154Z,101147.25
2023-02-14T03:12:54.964Z,101138.06
2023-02-14T03:15:34.193Z,101135.53
2023-02-14T03:18:18.936Z,101140.22
2023-02-14T03:20:45.444Z,101135.16
2023-02-14T03:23:24.295Z,101140.81
2023-02-14T03:26:15.328Z,101132.34
2023-02-14T03:28:44.937Z,101141.72
2023-02-14T03:31:28.152Z,101144.09
2023-02-14T03:34:06.951Z,101153.78
2023-02-14T03:36:50.896Z,101135.50
2023-02-14T03:39:33.301Z,101138.06
2023-02-14T03:42:22.662Z,101137.47
2023-02-14T03:44:53.015Z,101130.44
2023-02-14T03:47:24.215Z,101127.19
2023-02-14T03:49:56.472Z,101132.38
2023-02-14T03:52:27.412Z,101133.84
2023-02-14T03:54:57.234Z,101137.53
2023-02-14T03:57:46.097Z,101126.66
2023-02-14T04:00:13.825Z,101138.97
2023-02-14T04:02:46.612Z,101136.50
2023-02-14T04:05:19.486Z,101137.06
2023-02-14T04:07:53.273Z,101137.50
2023-02-14T04:10:21.227Z,101139.78
2023-02-14T04:12:48.478Z,101139.97
2023-02-14T04:15:15.916Z,101141.47
2023-02-14T04:18:01.023Z,101138.84
2023-02-14T04:20:28.419Z,101129.16
2023-02-14T04:22:55.292Z,101129.88
2023-02-14T04:25:22.778Z,101131.59
2023-02-14T04:27:49.196Z,101129.94
2023-02-14T04:30:17.963Z,101128.22
2023-02-14T04:32:44.719Z,101128.16
2023-02-14T04:35:11.376Z,101120.97
2023-02-14T04:37:37.982Z,101115.75
2023-02-14T04:40:05.076Z,101109.31
2023-02-14T04:42:31.961Z,101109.78
2023-02-14T04:44:58.810Z,101112.31
2023-02-14T04:47:25.658Z,101114.53
2023-02-14T04:49:52.429Z,101121.06
2023-02-14T04:52:19.227Z,101114.81
2023-02-14T04:54:45.667Z,101106.47
2023-02-14T04:57:12.076Z,101104.47
2023-02-14T04:59:38.651Z,101099.72
2023-02-14T05:02:05.129Z,101102.75
2023-02-14T05:04:31.757Z,101090.94
2023-02-14T05:06:58.149Z,101094.22
2023-02-14T05:09:25.800Z,101093.94
2023-02-14T05:11:52.221Z,101078.09
2023-02-14T05:14:19.482Z,101088.84
2023-02-14T05:16:46.242Z,101080.06
2023-02-14T05:19:13.337Z,101082.13
2023-02-14T05:21:40.138Z,101084.59
2023-02-14T05:24:06.810Z,101083.63
2023-02-14T05:26:33.683Z,101074.31
2023-02-14T05:29:00.401Z,101076.06
2023-02-14T05:31:27.077Z,101059.16
2023-02-14T05:33:53.550Z,101059.75
2023-02-14T05:36:20.205Z,101066.97
2023-02-14T05:38:46.621Z,101069.03
2023-02-14T05:41:13.705Z,101069.81
2023-02-14T05:43:40.113Z,101067.25
2023-02-14T05:46:06.777Z,101058.38
2023-02-14T05:48:33.956Z,101075.25
2023-02-14T05:51:05.636Z,101066.38
2023-02-14T05:53:33.412Z,101069.03
2023-02-14T05:56:00.175Z,101071.59
2023-02-14T05:58:27.115Z,101070.63
2023-02-14T06:00:53.725Z,101067.94
2023-02-14T06:03:20.257Z,101070.59
2023-02-14T06:05:46.766Z,101066.28
2023-02-14T06:08:13.230Z,101073.50
2023-02-14T06:10:39.651Z,101072.75
2023-02-14T06:13:10.583Z,101073.72
2023-02-14T06:15:38.545Z,101080.75
2023-02-14T06:18:05.499Z,101077.31
2023-02-14T06:20:32.025Z,101073.06
2023-02-14T06:22:59.539Z,101081.22
2023-02-14T06:25:26.178Z,101082.06
2023-02-14T06:27:56.893Z,101073.19
2023-02-14T06:30:23.910Z,101085.56
2023-02-14T06:32:50.541Z,101090.03
2023-02-14T06:35:17.623Z,101075.78
2023-02-14T06:37:45.177Z,101080.22
2023-02-14T06:40:12.581Z,101084.56
2023-02-14T06:42:39.069Z,101087.25
2023-02-14T06:45:06.733Z,101085.31
2023-02-14T06:47:34.958Z,101078.34
2023-02-14T06:50:04.505Z,101081.84
2023-02-14T06:52:32.545Z,101080.91
2023-02-14T06:54:59.084Z,101093.28
2023-02-14T06:57:25.606Z,101086.09
2023-02-14T06:59:52.093Z,101087.78
2023-02-14T07:02:18.678Z,101088.81
2023-02-14T07:04:45.395Z,101080.88
2023-02-14T07:07:11.992Z,101079.97
2023-02-14T07:09:38.711Z,101092.28
2023-02-14T07:12:06.096Z,101087.78
2023-02-14T07:14:32.563Z,101088.75
2023-02-14T07:16:59.109Z,101082.66
2023-02-14T07:19:25.641Z,101085.13
2023-02-14T07:21:52.071Z,101086.84
2023-02-14T07:24:18.939Z,101076.25
2023-02-14T07:26:45.591Z,101080.56
2023-02-14T07:29:12.170Z,101078.72
2023-02-14T07:31:38.650Z,101080.47
2023-02-14T07:34:05.294Z,101083.06
2023-02-14T07:36:31.735Z,101078.59
2023-02-14T07:38:58.421Z,101059.16
2023-02-14T07:41:25.088Z,101071.44
2023-02-14T07:43:51.747Z,101064.34
2023-02-14T07:46:18.776Z,101060.69
2023-02-14T07:48:45.298Z,101076.59
2023-02-14T07:51:11.990Z,101067.56
2023-02-14T07:53:38.367Z,101075.47
2023-02-14T07:56:05.174Z,101073.69
2023-02-14T07:58:31.670Z,101069.25
2023-02-14T08:00:58.732Z,101070.91
2023-02-14T08:03:25.237Z,101078.75
2023-02-14T08:05:57.680Z,101071.56
2023-02-14T08:08:26.526Z,101079.47
2023-02-14T08:10:53.248Z,101077.72
2023-02-14T08:13:20.427Z,101083.59
2023-02-14T08:16:05.200Z,101080.75
2023-02-14T08:18:39.766Z,101077.06
2023-02-14T08:21:09.285Z,101081.94
2023-02-14T08:23:37.383Z,101082.75
2023-02-14T08:26:04.381Z,101078.94
2023-02-14T08:28:33.544Z,101075.28
2023-02-14T08:31:00.908Z,101072.34
2023-02-14T08:33:28.305Z,101078.41
2023-02-14T08:35:54.888Z,101075.69
2023-02-14T08:38:21.439Z,101069.34
2023-02-14T08:40:48.372Z,101071.69
2023-02-14T08:43:14.820Z,101070.59
2023-02-14T08:45:41.859Z,101071.34
2023-02-14T08:48:10.856Z,101065.72
2023-02-14T08:50:38.266Z,101065.72
2023-02-14T08:53:13.035Z,101072.72
2023-02-14T08:55:41.514Z,101071.50
2023-02-14T08:58:09.280Z,101066.03
2023-02-14T09:00:36.378Z,101070.09
2023-02-14T09:03:02.843Z,101070.94
2023-02-14T09:05:29.869Z,101079.59
2023-02-14T09:07:56.612Z,101079.53
2023-02-14T09:10:24.998Z,101074.81
2023-02-14T09:12:51.931Z,101085.75
2023-02-14T09:15:18.833Z,101088.41
2023-02-14T09:17:45.531Z,101076.88
2023-02-14T09:20:13.210Z,101077.44
2023-02-14T09:22:39.965Z,101087.81
2023-02-14T09:25:06.681Z,101083.16
2023-02-14T09:27:33.671Z,101082.13
2023-02-14T09:30:00.314Z,101079.09
2023-02-14T09:32:29.018Z,101080.09
2023-02-14T09:35:14.299Z,101075.13
2023-02-14T09:37:40.680Z,101080.22
2023-02-14T09:40:07.857Z,101075.47
2023-02-14T09:42:42.794Z,101071.59
2023-02-14T09:45:25.699Z,101069.59
2023-02-14T09:48:31.673Z,101072.03
2023-02-14T09:51:07.087Z,101061.09
2023-02-14T09:53:40.585Z,101067.06
2023-02-14T09:56:50.586Z,101064.91
2023-02-14T09:59:28.256Z,101062.78
2023-02-14T10:02:09.425Z,101063.19
2023-02-14T10:04:42.356Z,101061.25
2023-02-14T10:07:17.969Z,101061.28
2023-02-14T10:10:03.776Z,101049.06
2023-02-14T10:12:37.039Z,101055.19
2023-02-14T10:15:26.189Z,101051.34
2023-02-14T10:18:01.092Z,101051.22
2023-02-14T10:20:30.565Z,101042.00
2023-02-14T10:23:05.170Z,101047.06
2023-02-14T10:25:48.803Z,101047.47
2023-02-14T10:28:24.751Z,101042.72
2023-02-14T10:31:26.803Z,101039.06
2023-02-14T10:34:04.395Z,101042.97
2023-02-14T10:36:43.123Z,101032.59
2023-02-14T10:39:28.347Z,101030.44
2023-02-14T10:42:23.651Z,101031.16
2023-02-14T10:45:17.753Z,101032.88
2023-02-14T10:48:19.521Z,101022.69
2023-02-14T10:51:10.558Z,101010.72
2023-02-14T10:53:49.319Z,101003.75
2023-02-14T10:56:23.449Z,101005.66
2023-02-14T10:58:52.428Z,101003.28
2023-02-14T11:01:20.183Z,101007.84
2023-02-14T11:04:11.574Z,101001.59
2023-02-14T11:06:38.241Z,100996.75
2023-02-14T11:09:05.184Z,100995.78
2023-02-14T11:11:38.340Z,100994.50
2023-02-14T11:14:24.775Z,100997.38
2023-02-14T11:16:52.794Z,100991.63
2023-02-14T11:19:22.752Z,100990.59
2023-02-14T11:21:50.940Z,100989.03
2023-02-14T11:24:32.727Z,100996.41
2023-02-14T11:27:03.053Z,100984.63
2023-02-14T11:29:41.528Z,100978.66
2023-02-14T11:32:10.780Z,100980.91
2023-02-14T11:34:41.071Z,100978.69
2023-02-14T11:37:23.489Z,100974.66
2023-02-14T11:39:51.560Z,100971.09
2023-02-14T11:42:47.728Z,100973.03
2023-02-14T11:45:31.983Z,100968.69
2023-02-14T11:48:20.001Z,100962.59
2023-02-14T11:51:03.265Z,100949.28
2023-02-14T11:53:53.366Z,100959.63
2023-02-14T11:56:21.655Z,100947.53
2023-02-14T11:59:03.378Z,100937.25
2023-02-14T12:01:35.918Z,100941.34
2023-02-14T12:04:14.052Z,100943.09
2023-02-14T12:06:40.830Z,100940.75
2023-02-14T12:09:23.625Z,100938.22
2023-02-14T12:11:59.594Z,100927.47
2023-02-14T12:14:35.348Z,100924.81
2023-02-14T12:17:11.411Z,100914.44
2023-02-14T12:19:44.821Z,100907.66
2023-02-14T12:22:18.850Z,100903.59
2023-02-14T12:24:54.634Z,100904.88
2023-02-14T12:27:24.675Z,100914.88
2023-02-14T12:30:14.066Z,100899.63
2023-02-14T12:32:52.641Z,100897.94
2023-02-14T12:35:50.022Z,100895.94
2023-02-14T12:38:34.800Z,100893.34
2023-02-14T12:41:30.594Z,100898.00
2023-02-14T12:44:03.421Z,100890.03
2023-02-14T12:47:14.657Z,100889.88
2023-02-14T12:49:54.834Z,100890.41
2023-02-14T12:52:30.591Z,100879.72
2023-02-14T12:55:25.194Z,100880.41
2023-02-14T12:57:58.924Z,100871.94
2023-02-14T13:00:28.153Z,100874.97
2023-02-14T13:03:16.045Z,100873.50
2023-02-14T13:05:57.749Z,100880.75
2023-02-14T13:08:31.735Z,100866.75
2023-02-14T13:11:29.931Z,100864.84
2023-02-14T13:14:29.668Z,100851.94
2023-02-14T13:16:58.886Z,100851.84
2023-02-14T13:20:08.963Z,100839.38
2023-02-14T13:22:37.123Z,100838.47
2023-02-14T13:25:13.117Z,100832.00
2023-02-14T13:27:41.257Z,100821.84
2023-02-14T13:30:24.976Z,100814.97
2023-02-14T13:32:54.782Z,100826.56
2023-02-14T13:35:23.823Z,100816.78
2023-02-14T13:38:03.562Z,100820.06
2023-02-14T13:40:32.069Z,100821.09
2023-02-14T13:43:00.646Z,100812.72
2023-02-14T13:45:30.583Z,100816.31
2023-02-14T13:48:21.132Z,100813.41
2023-02-14T13:50:51.057Z,100812.47
2023-02-14T13:53:39.503Z,100808.38
2023-02-14T13:56:11.953Z,100809.03
2023-02-14T13:58:59.890Z,100800.66
2023-02-14T14:01:37.801Z,100805.91
2023-02-14T14:04:26.623Z,100794.47
2023-02-14T14:07:05.816Z,100793.22
2023-02-14T14:09:57.217Z,100786.34
2023-02-14T14:12:37.555Z,100789.56
2023-02-14T14:15:06.845Z,100792.28
2023-02-14T14:17:41.330Z,100792.81
2023-02-14T14:20:20.114Z,100790.53
2023-02-14T14:23:44.809Z,100779.53
2023-02-14T14:26:35.198Z,100778.69
2023-02-14T14:29:01.742Z,100770.66
2023-02-14T14:31:29.633Z,100777.88
2023-02-14T14:34:02.258Z,100776.19
2023-02-14T14:36:29.128Z,100771.09
2023-02-14T14:38:55.540Z,100767.03
2023-02-14T14:41:31.397Z,100767.25
2023-02-14T14:43:59.716Z,100764.91
2023-02-14T14:46:26.300Z,100765.41
2023-02-14T14:48:56.078Z,100768.84
2023-02-14T14:51:28.509Z,100763.16
2023-02-14T14:54:27.542Z,100771.06
2023-02-14T14:57:04.389Z,100752.34
2023-02-14T14:59:37.226Z,100755.69
2023-02-14T15:02:27.469Z,100748.03
2023-02-14T15:04:53.935Z,100751.38
2023-02-14T15:07:30.459Z,100748.53
2023-02-14T15:09:56.928Z,100749.25
2023-02-14T15:12:44.036Z,100751.06
2023-02-14T15:15:13.483Z,100760.06
2023-02-14T15:17:41.872Z,100755.66
2023-02-14T15:20:19.045Z,100747.72
2023-02-14T15:22:48.330Z,100752.72
2023-02-14T15:25:28.006Z,100743.59
2023-02-14T15:27:55.410Z,100737.91
2023-02-14T15:30:31.680Z,100736.47
2023-02-14T15:32:58.820Z,100740.59
2023-02-14T15:35:29.027Z,100744.03
2023-02-14T15:37:57.815Z,100748.88
2023-02-14T15:40:27.279Z,100751.34
2023-02-14T15:42:56.607Z,100749.09
2023-02-14T15:45:28.818Z,100749.59
2023-02-14T15:47:59.195Z,100747.88
2023-02-14T15:50:30.334Z,100743.28
2023-02-14T15:53:17.221Z,100744.72
2023-02-14T15:55:44.575Z,100740.34
2023-02-14T15:58:32.794Z,100752.41
2023-02-14T16:01:00.101Z,100750.47
2023-02-14T16:03:31.128Z,100757.72
2023-02-14T16:05:57.513Z,100764.25
2023-02-14T16:08:34.579Z,100761.25
2023-02-14T16:11:15.760Z,100762.00
2023-02-14T16:13:45.151Z,100753.84
2023-02-14T16:16:15.523Z,100754.13
2023-02-14T16:18:42.694Z,100752.00
2023-02-14T16:21:18.036Z,100757.84
2023-02-14T16:24:07.550Z,100767.22
2023-02-14T16:26:35.934Z,100765.97
2023-02-14T16:29:04.017Z,100764.75
2023-02-14T16:31:30.984Z,100755.72
2023-02-14T16:33:58.131Z,100759.56
2023-02-14T16:36:32.773Z,100764.28
2023-02-14T16:39:04.877Z,100761.78
2023-02-14T16:41:33.803Z,100767.72
2023-02-14T16:44:00.526Z,100769.50
2023-02-14T16:46:32.507Z,100774.28
2023-02-14T16:48:59.719Z,100777.22
2023-02-14T16:51:29.726Z,100779.22
2023-02-14T16:53:59.253Z,100787.28
2023-02-14T16:56:44.359Z,100790.66
2023-02-14T16:59:10.871Z,100780.38
2023-02-14T17:01:37.589Z,100783.16
2023-02-14T17:04:04.720Z,100788.91
2023-02-14T17:06:33.925Z,100787.34
2023-02-14T17:09:05.748Z,100794.63
2023-02-14T17:11:36.725Z,100798.50
2023-02-14T17:14:03.354Z,100794.38
2023-02-14T17:16:31.481Z,100803.56
2023-02-14T17:18:58.527Z,100796.72
2023-02-14T17:21:25.149Z,100803.88
2023-02-14T17:23:51.729Z,100807.53
2023-02-14T17:26:18.712Z,100808.66
2023-02-14T17:28:46.452Z,100805.53
2023-02-14T17:31:13.599Z,100812.06
2023-02-14T17:33:40.454Z,100814.19
2023-02-14T17:36:11.862Z,100805.56
2023-02-14T17:38:40.455Z,100809.09
2023-02-14T17:41:11.925Z,100800.31
2023-02-14T17:43:38.517Z,100807.72
2023-02-14T17:46:05.496Z,100805.91
2023-02-14T17:48:32.391Z,100820.75
2023-02-14T17:51:06.494Z,100813.81
2023-02-14T17:53:33.993Z,100816.81
2023-02-14T17:56:12.260Z,100821.63
2023-02-14T17:58:39.052Z,100820.06
2023-02-14T18:01:08.145Z,100820.38
2023-02-14T18:03:35.543Z,100818.78
2023-02-14T18:06:02.860Z,100828.38
2023-02-14T18:08:32.021Z,100819.03
2023-02-14T18:10:58.689Z,100824.22
2023-02-14T18:13:26.143Z,100828.53
2023-02-14T18:15:53.175Z,100824.31
2023-02-14T18:18:20.360Z,100818.22
2023-02-14T18:20:58.490Z,100818.41
2023-02-14T18:23:25.492Z,100831.69
2023-02-14T18:25:55.577Z,100816.75
2023-02-14T18:28:23.865Z,100820.31
2023-02-14T18:30:50.842Z,100815.81
2023-02-14T18:33:18.124Z,100814.91
2023-02-14T18:35:45.217Z,100819.13
2023-02-14T18:38:12.477Z,100814.91
2023-02-14T18:40:40.058Z,100813.22
2023-02-14T18:43:06.955Z,100819.53
2023-02-14T18:45:38.109Z,100816.75
2023-02-14T18:48:06.003Z,100804.31
2023-02-14T18:50:33.510Z,100810.56
2023-02-14T18:53:00.210Z,100808.69
2023-02-14T18:55:27.247Z,100807.97
2023-02-14T18:57:54.041Z,100811.38
2023-02-14T19:00:21.739Z,100803.75
2023-02-14T19:02:48.543Z,100808.97
2023-02-14T19:05:15.216Z,100805.56
2023-02-14T19:07:41.829Z,100804.63
2023-02-14T19:10:10.633Z,100803.84
2023-02-14T19:12:37.065Z,100798.59
2023-02-14T19:15:03.962Z,100800.50
2023-02-14T19:17:30.482Z,100805.03
2023-02-14T19:19:57.290Z,100783.44
2023-02-14T19:22:23.885Z,100792.31
2023-02-14T19:24:54.057Z,100790.00
2023-02-14T19:27:21.496Z,100784.78
2023-02-14T19:29:48.426Z,100790.00
2023-02-14T19:32:14.918Z,100792.94
2023-02-14T19:34:41.808Z,100788.66
2023-02-14T19:37:08.327Z,100784.31
2023-02-14T19:39:35.162Z,100776.38
2023-02-14T19:42:01.935Z,100779.03
2023-02-14T19:44:30.475Z,100778.09
2023-02-14T19:46:59.873Z,100765.59
2023-02-14T19:49:28.807Z,100771.22
2023-02-14T19:51:56.368Z,100768.75
2023-02-14T19:54:25.825Z,100765.03
2023-02-14T19:56:53.419Z,100762.44
2023-02-14T19:59:21.689Z,100754.56
2023-02-14T20:01:53.760Z,100755.03
2023-02-14T20:04:26.632Z,100764.84
2023-02-14T20:06:53.801Z,100756.06
2023-02-14T20:09:21.829Z,100751.44
2023-02-14T20:11:51.430Z,100758.53
2023-02-14T20:14:30.514Z,100746.25
2023-02-14T20:16:59.032Z,100753.28
2023-02-14T20:19:29.224Z,100750.72
2023-02-14T20:21:56.139Z,100744.53
2023-02-14T20:24:31.080Z,100746.19
2023-02-14T20:26:58.120Z,100735.94
2023-02-14T20:29:25.345Z,100733.56
2023-02-14T20:31:54.474Z,100733.25
2023-02-14T20:34:21.594Z,100726.66
2023-02-14T20:36:56.351Z,100729.06
2023-02-14T20:39:35.800Z,100734.56
2023-02-14T20:42:03.834Z,100725.63
2023-02-14T20:44:30.753Z,100722.84
2023-02-14T20:46:57.992Z,100717.84
2023-02-14T20:49:26.361Z,100726.72
2023-02-14T20:51:53.545Z,100724.97
2023-02-14T20:54:23.118Z,100717.88
2023-02-14T20:56:51.019Z,100715.44
2023-02-14T20:59:19.338Z,100723.31
2023-02-14T21:01:45.888Z,100727.00
2023-02-14T21:04:14.448Z,100727.78
2023-02-14T21:06:41.041Z,100728.78
2023-02-14T21:09:08.334Z,100730.59
2023-02-14T21:11:34.821Z,100732.50
2023-02-14T21:14:01.959Z,100730.94
2023-02-14T21:16:30.120Z,100736.09
2023-02-14T21:19:01.325Z,100736.03
2023-02-14T21:21:33.663Z,100736.09
2023-02-14T21:24:01.946Z,100735.91
2023-02-14T21:26:28.929Z,100734.16
2023-02-14T21:28:55.500Z,100743.81
2023-02-14T21:31:23.341Z,100735.28
2023-02-14T21:33:57.546Z,100733.53
2023-02-14T21:36:26.098Z,100731.59
2023-02-14T21:38:55.348Z,100731.91
2023-02-14T21:41:23.973Z,100730.38
2023-02-14T21:43:52.919Z,100727.88
2023-02-14T21:46:27.052Z,100726.81
2023-02-14T21:49:14.293Z,100721.56
2023-02-14T21:51:40.991Z,100728.88
2023-02-14T21:54:08.514Z,100724.31
2023-02-14T21:56:36.831Z,100730.28
2023-02-14T21:59:03.769Z,100734.13
2023-02-14T22:01:35.667Z,100726.91
2023-02-14T22:04:04.592Z,100729.59
2023-02-14T22:06:31.918Z,100730.47
2023-02-14T22:09:00.547Z,100724.56
2023-02-14T22:11:28.961Z,100722.06
2023-02-14T22:14:00.237Z,100719.38
2023-02-14T22:16:27.961Z,100729.03
2023-02-14T22:18:54.945Z,100720.41
2023-02-14T22:21:24.113Z,100721.13
2023-02-14T22:23:51.320Z,100717.13
2023-02-14T22:26:26.673Z,100710.19
2023-02-14T22:28:59.123Z,100718.94
2023-02-14T22:31:29.230Z,100713.78
2023-02-14T22:33:55.832Z,100711.84
2023-02-14T22:36:22.870Z,100713.50
2023-02-14T22:38:49.340Z,100710.81
2023-02-14T22:41:21.475Z,100704.81
2023-02-14T22:43:47.955Z,100707.31
2023-02-14T22:46:22.777Z,100699.56
2023-02-14T22:48:50.141Z,100701.34
2023-02-14T22:51:27.223Z,100701.13
2023-02-14T22:53:56.390Z,100703.19
2023-02-14T22:56:26.916Z,100692.41
2023-02-14T22:58:59.092Z,100694.50
2023-02-14T23:01:25.980Z,100693.50
2023-02-14T23:03:54.427Z,100693.47
2023-02-14T23:06:21.019Z,100693.50
2023-02-14T23:08:48.032Z,100684.06
2023-02-14T23:11:17.739Z,100682.31
2023-02-14T23:14:03.521Z,100687.41
2023-02-14T23:16:49.978Z,100686.41
2023-02-14T23:19:38.975Z,100689.16
2023-02-14T23:22:08.554Z,100683.03
2023-02-14T23:24:35.292Z,100685.75
2023-02-14T23:27:02.830Z,100688.13
2023-02-14T23:29:29.972Z,100682.25
2023-02-14T23:31:57.382Z,100676.94
2023-02-14T23:34:28.503Z,100673.53
2023-02-14T23:36:55.302Z,100682.22
2023-02-14T23:39:21.997Z,100675.06
2023-02-14T23:41:48.504Z,100681.38
2023-02-14T23:44:20.318Z,100664.53
2023-02-14T23:46:51.538Z,100662.56
2023-02-14T23:49:18.577Z,100658.31
2023-02-14T23:51:46.955Z,100660.22
2023-02-14T23:54:14.043Z,100663.53
2023-02-14T23:56:41.398Z,100659.22
2023-02-14T23:59:08.787Z,100662.91
